createdAt,value
2023-11-23T00:00:11.900Z,100548.56
2023-11-23T00:02:42.317Z,100549.34
2023-11-23T00:05:09.666Z,100542.19
2023-11-23T00:07:36.806Z,100530.72
2023-11-23T00:10:04.250Z,100523.56
2023-11-23T00:12:31.277Z,100524.53
2023-11-23T00:14:57.858Z,100520.53
2023-11-23T00:17:24.402Z,100519.50
2023-11-23T00:19:50.897Z,100525.13
2023-11-23T00:22:17.695Z,100507.72
2023-11-23T00:24:44.239Z,100517.41
2023-11-23T00:27:10.803Z,100511.78
2023-11-23T00:29:37.479Z,100510.16
2023-11-23T00:32:04.816Z,100508.75
2023-11-23T00:34:33.570Z,100515.19
2023-11-23T00:37:00.683Z,100514.03
2023-11-23T00:39:27.641Z,100506.44
2023-11-23T00:41:56.901Z,100503.09
2023-11-23T00:44:23.423Z,100502.38
2023-11-23T00:46:50.066Z,100501.16
2023-11-23T00:49:17.035Z,100508.66
2023-11-23T00:51:43.666Z,100496.25
2023-11-23T00:54:10.449Z,100496.56
2023-11-23T00:56:38.187Z,100487.78
2023-11-23T00:59:04.909Z,100496.66
2023-11-23T01:01:33.603Z,100499.38
2023-11-23T01:04:00.347Z,100504.19
2023-11-23T01:06:26.844Z,100495.72
2023-11-23T01:08:53.472Z,100491.88
2023-11-23T01:11:19.972Z,100498.41
2023-11-23T01:13:48.457Z,100497.84
2023-11-23T01:16:15.239Z,100499.13
2023-11-23T01:18:43.473Z,100506.91
2023-11-23T01:21:10.373Z,100506.63
2023-11-23T01:23:36.976Z,100507.28
2023-11-23T01:26:03.817Z,100503.56
2023-11-23T01:28:30.394Z,100512.22
2023-11-23T01:30:56.943Z,100505.66
2023-11-23T01:33:24.299Z,100507.47
2023-11-23T01:35:51.504Z,100500.34
2023-11-23T01:38:18.152Z,100493.13
2023-11-23T01:40:44.692Z,100493.75
2023-11-23T01:43:11.663Z,100490.78
2023-11-23T01:45:39.615Z,100483.75
2023-11-23T01:48:07.053Z,100482.63
2023-11-23T01:50:35.526Z,100493.75
2023-11-23T01:53:03.849Z,100484.81
2023-11-23T01:55:30.411Z,100481.75
2023-11-23T01:57:59.246Z,100486.59
2023-11-23T02:00:26.364Z,100489.03
2023-11-23T02:02:53.325Z,100477.56
2023-11-23T02:05:22.985Z,100461.59
2023-11-23T02:07:49.689Z,100464.63
2023-11-23T02:10:16.318Z,100465.66
2023-11-23T02:12:44.772Z,100476.84
2023-11-23T02:15:11.781Z,100472.09
2023-11-23T02:17:38.582Z,100473.31
2023-11-23T02:20:10.003Z,100473.13
2023-11-23T02:22:37.484Z,100477.50
2023-11-23T02:25:07.513Z,100478.88
2023-11-23T02:27:37.464Z,100477.09
2023-11-23T02:30:07.006Z,100473.25
2023-11-23T02:32:33.755Z,100467.00
2023-11-23T02:35:00.379Z,100461.25
2023-11-23T02:37:26.854Z,100451.28
2023-11-23T02:39:53.411Z,100464.72
2023-11-23T02:42:20.543Z,100458.50
2023-11-23T02:44:47.196Z,100457.50
2023-11-23T02:47:13.835Z,100463.00
2023-11-23T02:49:40.774Z,100458.63
2023-11-23T02:52:07.416Z,100466.50
2023-11-23T02:54:34.013Z,100456.69
2023-11-23T02:57:00.695Z,100443.16
2023-11-23T02:59:27.285Z,100436.28
2023-11-23T03:01:53.926Z,100429.88
2023-11-23T03:04:20.562Z,100427.78
2023-11-23T03:06:47.195Z,100435.91
2023-11-23T03:09:14.149Z,100432.94
2023-11-23T03:11:42.027Z,100437.59
2023-11-23T03:14:09.626Z,100437.91
2023-11-23T03:16:36.503Z,100427.34
2023-11-23T03:19:03.253Z,100420.06
2023-11-23T03:21:30.088Z,100412.50
2023-11-23T03:23:57.434Z,100417.59
2023-11-23T03:26:24.073Z,100407.03
2023-11-23T03:28:50.530Z,100399.47
2023-11-23T03:31:16.993Z,100410.50
2023-11-23T03:33:43.575Z,100404.84
2023-11-23T03:36:10.425Z,100404.53
2023-11-23T03:38:38.262Z,100401.16
2023-11-23T03:41:05.483Z,100404.84
2023-11-23T03:43:32.055Z,100408.75
2023-11-23T03:45:58.581Z,100405.44
2023-11-23T03:48:25.296Z,100404.59
2023-11-23T03:50:52.225Z,100403.56
2023-11-23T03:53:18.786Z,100404.75
2023-11-23T03:55:45.432Z,100409.09
2023-11-23T03:58:17.740Z,100402.81
2023-11-23T04:00:44.373Z,100419.22
2023-11-23T04:03:10.975Z,100412.34
2023-11-23T04:05:39.904Z,100422.94
2023-11-23T04:08:06.846Z,100427.28
2023-11-23T04:10:33.376Z,100432.34
2023-11-23T04:13:03.324Z,100440.25
2023-11-23T04:15:29.985Z,100438.00
2023-11-23T04:17:56.810Z,100439.22
2023-11-23T04:20:23.397Z,100435.19
2023-11-23T04:22:49.990Z,100436.38
2023-11-23T04:25:16.626Z,100434.31
2023-11-23T04:27:43.177Z,100433.38
2023-11-23T04:30:10.844Z,100421.78
2023-11-23T04:32:37.633Z,100418.97
2023-11-23T04:35:04.536Z,100422.84
2023-11-23T04:37:31.095Z,100425.38
2023-11-23T04:39:57.596Z,100430.00
2023-11-23T04:42:24.256Z,100433.28
2023-11-23T04:44:50.860Z,100426.72
2023-11-23T04:47:17.453Z,100427.59
2023-11-23T04:49:44.316Z,100433.28
2023-11-23T04:52:11.114Z,100428.22
2023-11-23T04:54:40.086Z,100423.13
2023-11-23T04:57:08.636Z,100425.06
2023-11-23T04:59:35.634Z,100413.16
2023-11-23T05:02:02.295Z,100417.47
2023-11-23T05:04:28.942Z,100415.09
2023-11-23T05:06:57.151Z,100425.50
2023-11-23T05:09:24.008Z,100429.25
2023-11-23T05:11:50.849Z,100427.91
2023-11-23T05:14:18.154Z,100429.09
2023-11-23T05:16:44.744Z,100432.47
2023-11-23T05:19:11.244Z,100434.75
2023-11-23T05:21:37.927Z,100436.50
2023-11-23T05:24:05.846Z,100443.09
2023-11-23T05:26:32.552Z,100432.97
2023-11-23T05:28:59.023Z,100441.63
2023-11-23T05:31:25.546Z,100438.94
2023-11-23T05:33:52.297Z,100430.00
2023-11-23T05:36:19.862Z,100424.06
2023-11-23T05:38:46.494Z,100427.47
2023-11-23T05:41:13.085Z,100418.22
2023-11-23T05:43:39.624Z,100421.34
2023-11-23T05:46:06.248Z,100422.41
2023-11-23T05:48:32.817Z,100430.91
2023-11-23T05:51:02.374Z,100425.22
2023-11-23T05:53:28.942Z,100419.53
2023-11-23T05:55:55.666Z,100430.28
2023-11-23T05:58:22.175Z,100426.13
2023-11-23T06:00:59.959Z,100408.41
2023-11-23T06:03:34.223Z,100414.50
2023-11-23T06:06:00.965Z,100417.78
2023-11-23T06:08:30.617Z,100414.38
2023-11-23T06:11:00.218Z,100416.00
2023-11-23T06:13:29.097Z,100418.66
2023-11-23T06:15:55.617Z,100412.41
2023-11-23T06:18:22.776Z,100406.44
2023-11-23T06:20:49.869Z,100401.84
2023-11-23T06:23:16.574Z,100403.78
2023-11-23T06:25:43.077Z,100408.84
2023-11-23T06:28:15.157Z,100404.97
2023-11-23T06:30:46.195Z,100399.72
2023-11-23T06:33:13.327Z,100399.03
2023-11-23T06:35:40.302Z,100397.22
2023-11-23T06:38:06.989Z,100409.00
2023-11-23T06:40:35.699Z,100411.84
2023-11-23T06:43:03.516Z,100405.13
2023-11-23T06:45:30.785Z,100404.53
2023-11-23T06:47:57.469Z,100392.44
2023-11-23T06:50:24.150Z,100397.97
2023-11-23T06:52:50.767Z,100397.50
2023-11-23T06:55:17.367Z,100398.41
2023-11-23T06:57:53.300Z,100401.38
2023-11-23T07:00:23.793Z,100397.81
2023-11-23T07:02:56.610Z,100395.09
2023-11-23T07:05:25.155Z,100396.91
2023-11-23T07:07:52.780Z,100392.13
2023-11-23T07:10:20.760Z,100393.47
2023-11-23T07:12:51.566Z,100380.94
2023-11-23T07:15:19.452Z,100379.69
2023-11-23T07:17:47.770Z,100379.69
2023-11-23T07:20:15.802Z,100375.38
2023-11-23T07:22:42.605Z,100379.88
2023-11-23T07:25:12.338Z,100375.19
2023-11-23T07:27:39.416Z,100364.47
2023-11-23T07:30:10.217Z,100376.72
2023-11-23T07:32:37.669Z,100390.53
2023-11-23T07:35:05.409Z,100388.50
2023-11-23T07:37:32.435Z,100390.84
2023-11-23T07:39:59.030Z,100393.22
2023-11-23T07:42:26.799Z,100400.22
2023-11-23T07:44:53.849Z,100407.28
2023-11-23T07:47:21.090Z,100399.78
2023-11-23T07:49:52.081Z,100403.06
2023-11-23T07:52:18.549Z,100400.06
2023-11-23T07:54:45.302Z,100415.13
2023-11-23T07:57:12.320Z,100421.53
2023-11-23T07:59:40.111Z,100432.25
2023-11-23T08:02:06.996Z,100425.81
2023-11-23T08:04:33.605Z,100411.03
2023-11-23T08:07:00.469Z,100413.69
2023-11-23T08:09:27.334Z,100413.69
2023-11-23T08:11:54.122Z,100412.50
2023-11-23T08:14:21.507Z,100423.22
2023-11-23T08:16:48.335Z,100418.56
2023-11-23T08:19:15.504Z,100414.97
2023-11-23T08:21:42.983Z,100430.03
2023-11-23T08:24:11.133Z,100425.84
2023-11-23T08:26:37.952Z,100410.91
2023-11-23T08:29:06.309Z,100408.97
2023-11-23T08:31:33.020Z,100399.56
2023-11-23T08:33:59.734Z,100395.38
2023-11-23T08:36:26.465Z,100396.84
2023-11-23T08:38:53.100Z,100393.84
2023-11-23T08:41:19.804Z,100396.19
2023-11-23T08:43:48.621Z,100400.66
2023-11-23T08:46:15.536Z,100395.25
2023-11-23T08:48:42.801Z,100393.53
2023-11-23T08:51:09.452Z,100384.41
2023-11-23T08:53:36.064Z,100383.19
2023-11-23T08:56:02.849Z,100374.22
2023-11-23T08:58:29.535Z,100374.94
2023-11-23T09:00:56.104Z,100371.28
2023-11-23T09:03:22.737Z,100372.34
2023-11-23T09:05:49.590Z,100374.69
2023-11-23T09:08:16.177Z,100368.06
2023-11-23T09:10:45.222Z,100368.34
2023-11-23T09:13:11.768Z,100361.56
2023-11-23T09:15:38.378Z,100359.69
2023-11-23T09:18:05.263Z,100353.78
2023-11-23T09:20:32.584Z,100357.50
2023-11-23T09:22:59.160Z,100366.13
2023-11-23T09:25:26.138Z,100365.81
2023-11-23T09:27:52.688Z,100369.25
2023-11-23T09:30:19.327Z,100374.03
2023-11-23T09:32:45.950Z,100373.53
2023-11-23T09:35:12.554Z,100372.94
2023-11-23T09:37:39.330Z,100378.41
2023-11-23T09:40:11.341Z,100381.38
2023-11-23T09:42:39.757Z,100371.31
2023-11-23T09:45:08.230Z,100375.44
2023-11-23T09:47:36.406Z,100371.41
2023-11-23T09:50:04.314Z,100367.47
2023-11-23T09:52:31.513Z,100374.22
2023-11-23T09:54:58.778Z,100371.94
2023-11-23T09:57:25.508Z,100374.59
2023-11-23T09:59:52.068Z,100366.09
2023-11-23T10:02:21.766Z,100359.47
2023-11-23T10:04:51.312Z,100363.59
2023-11-23T10:07:17.933Z,100354.84
2023-11-23T10:09:44.723Z,100348.84
2023-11-23T10:12:11.794Z,100347.59
2023-11-23T10:14:40.692Z,100348.38
2023-11-23T10:17:08.102Z,100344.19
2023-11-23T10:19:34.668Z,100342.03
2023-11-23T10:22:04.414Z,100327.25
2023-11-23T10:24:32.025Z,100327.53
2023-11-23T10:26:59.696Z,100320.16
2023-11-23T10:29:39.602Z,100314.84
2023-11-23T10:32:15.836Z,100307.94
2023-11-23T10:34:43.141Z,100295.72
2023-11-23T10:37:14.837Z,100292.69
2023-11-23T10:39:41.525Z,100295.38
2023-11-23T10:42:08.130Z,100292.03
2023-11-23T10:44:35.084Z,100288.25
2023-11-23T10:47:05.084Z,100286.94
2023-11-23T10:49:35.058Z,100275.50
2023-11-23T10:52:01.550Z,100271.06
2023-11-23T10:54:33.628Z,100266.47
2023-11-23T10:57:05.059Z,100277.56
2023-11-23T10:59:38.861Z,100260.88
2023-11-23T11:02:08.470Z,100241.50
2023-11-23T11:04:35.472Z,100230.28
2023-11-23T11:07:05.283Z,100217.56
2023-11-23T11:09:34.504Z,100216.56
2023-11-23T11:12:03.536Z,100214.50
2023-11-23T11:14:37.532Z,100218.84
2023-11-23T11:17:07.917Z,100214.13
2023-11-23T11:19:47.145Z,100222.13
2023-11-23T11:22:14.786Z,100215.53
2023-11-23T11:24:50.636Z,100214.50
2023-11-23T11:27:20.832Z,100207.38
2023-11-23T11:29:53.848Z,100206.59
2023-11-23T11:32:21.954Z,100201.50
2023-11-23T11:34:48.667Z,100210.19
2023-11-23T11:37:15.832Z,100200.88
2023-11-23T11:39:45.284Z,100196.38
2023-11-23T11:42:12.277Z,100192.81
2023-11-23T11:44:49.764Z,100191.91
2023-11-23T11:47:18.308Z,100199.06
2023-11-23T11:49:45.058Z,100218.78
2023-11-23T11:52:13.460Z,100196.75
2023-11-23T11:54:40.331Z,100195.34
2023-11-23T11:57:06.998Z,100173.44
2023-11-23T11:59:37.230Z,100160.13
2023-11-23T12:02:13.028Z,100154.88
2023-11-23T12:04:40.703Z,100157.56
2023-11-23T12:07:15.533Z,100146.81
2023-11-23T12:09:46.617Z,100137.28
2023-11-23T12:12:14.369Z,100141.50
2023-11-23T12:14:41.005Z,100125.16
2023-11-23T12:17:11.900Z,100123.03
2023-11-23T12:19:50.273Z,100130.00
2023-11-23T12:22:24.530Z,100126.94
2023-11-23T12:24:52.401Z,100129.47
2023-11-23T12:27:21.562Z,100130.47
2023-11-23T12:29:48.389Z,100124.84
2023-11-23T12:32:15.036Z,100116.84
2023-11-23T12:34:41.617Z,100118.50
2023-11-23T12:37:08.285Z,100133.50
2023-11-23T12:39:35.093Z,100145.31
2023-11-23T12:42:01.748Z,100124.38
2023-11-23T12:44:28.451Z,100121.84
2023-11-23T12:46:58.009Z,100128.69
2023-11-23T12:49:24.551Z,100120.28
2023-11-23T12:51:53.056Z,100113.38
2023-11-23T12:54:19.716Z,100128.16
2023-11-23T12:56:46.427Z,100115.66
2023-11-23T12:59:13.072Z,100117.56
2023-11-23T13:01:40.740Z,100112.81
2023-11-23T13:04:09.701Z,100114.97
2023-11-23T13:06:37.584Z,100113.75
2023-11-23T13:09:05.396Z,100088.56
2023-11-23T13:11:32.740Z,100091.44
2023-11-23T13:13:59.557Z,100085.69
2023-11-23T13:16:26.233Z,100071.38
2023-11-23T13:19:06.470Z,100077.91
2023-11-23T13:21:39.960Z,100071.38
2023-11-23T13:24:08.014Z,100063.97
2023-11-23T13:26:34.751Z,100061.88
2023-11-23T13:29:01.260Z,100056.53
2023-11-23T13:31:28.835Z,100055.19
2023-11-23T13:33:56.394Z,100044.22
2023-11-23T13:36:23.944Z,100038.13
2023-11-23T13:38:51.607Z,100029.69
2023-11-23T13:41:19.832Z,100017.06
2023-11-23T13:43:48.156Z,100011.06
2023-11-23T13:46:19.963Z,100014.88
2023-11-23T13:48:51.346Z,100025.38
2023-11-23T13:51:19.253Z,100028.38
2023-11-23T13:53:46.206Z,100023.72
2023-11-23T13:56:16.042Z,100015.09
2023-11-23T13:58:43.071Z,100005.19
2023-11-23T14:01:12.538Z,100021.84
2023-11-23T14:03:39.515Z,100014.19
2023-11-23T14:06:07.582Z,100008.47
2023-11-23T14:08:35.139Z,100024.09
2023-11-23T14:11:02.306Z,100016.00
2023-11-23T14:13:29.206Z,100003.56
2023-11-23T14:15:55.920Z,100005.59
2023-11-23T14:18:22.803Z,100008.25
2023-11-23T14:20:50.862Z,100023.09
2023-11-23T14:23:18.536Z,100010.47
2023-11-23T14:25:45.205Z,100006.44
2023-11-23T14:28:16.281Z,100008.91
2023-11-23T14:30:46.835Z,100018.00
2023-11-23T14:33:14.698Z,100000.13
2023-11-23T14:35:42.580Z,100004.78
2023-11-23T14:38:12.131Z,99997.72
2023-11-23T14:40:40.737Z,99994.50
2023-11-23T14:43:08.778Z,99998.69
2023-11-23T14:45:37.009Z,99992.81
2023-11-23T14:48:04.982Z,99988.50
2023-11-23T14:50:31.844Z,99978.50
2023-11-23T14:52:59.754Z,99960.63
2023-11-23T14:55:26.708Z,99959.19
2023-11-23T14:57:53.294Z,99965.41
2023-11-23T15:00:20.144Z,99976.72
2023-11-23T15:02:47.102Z,99970.19
2023-11-23T15:05:14.216Z,99961.63
2023-11-23T15:07:43.543Z,99953.19
2023-11-23T15:10:13.134Z,99947.22
2023-11-23T15:12:41.219Z,99944.34
2023-11-23T15:15:09.536Z,99942.78
2023-11-23T15:17:37.520Z,99940.44
2023-11-23T15:20:07.463Z,99924.44
2023-11-23T15:22:34.838Z,99920.78
2023-11-23T15:25:09.879Z,99917.47
2023-11-23T15:27:37.631Z,99903.06
2023-11-23T15:30:06.026Z,99904.28
2023-11-23T15:32:38.485Z,99912.03
2023-11-23T15:35:08.959Z,99904.03
2023-11-23T15:37:37.263Z,99904.16
2023-11-23T15:40:06.375Z,99904.81
2023-11-23T15:42:34.174Z,99912.16
2023-11-23T15:45:00.670Z,99911.25
2023-11-23T15:47:27.187Z,99903.06
2023-11-23T15:49:53.684Z,99893.94
2023-11-23T15:52:21.466Z,99901.91
2023-11-23T15:54:48.178Z,99899.69
2023-11-23T15:57:17.631Z,99897.16
2023-11-23T15:59:44.212Z,99893.69
2023-11-23T16:02:12.330Z,99894.59
2023-11-23T16:04:39.165Z,99892.25
2023-11-23T16:07:05.625Z,99893.16
2023-11-23T16:09:32.124Z,99893.69
2023-11-23T16:11:59.065Z,99887.28
2023-11-23T16:14:25.531Z,99874.63
2023-11-23T16:16:52.162Z,99879.50
2023-11-23T16:19:18.730Z,99869.88
2023-11-23T16:21:45.200Z,99862.97
2023-11-23T16:24:12.054Z,99851.00
2023-11-23T16:26:38.745Z,99838.00
2023-11-23T16:29:11.024Z,99853.88
2023-11-23T16:31:43.203Z,99857.09
2023-11-23T16:34:12.712Z,99854.44
2023-11-23T16:36:40.800Z,99858.78
2023-11-23T16:39:08.476Z,99854.66
2023-11-23T16:41:35.276Z,99849.75
2023-11-23T16:44:02.030Z,99848.22
2023-11-23T16:46:28.501Z,99843.66
2023-11-23T16:48:55.860Z,99837.00
2023-11-23T16:51:25.375Z,99825.31
2023-11-23T16:53:54.675Z,99824.22
2023-11-23T16:56:22.217Z,99828.22
2023-11-23T16:58:48.719Z,99821.59
2023-11-23T17:01:15.253Z,99815.31
2023-11-23T17:03:41.769Z,99813.56
2023-11-23T17:06:08.750Z,99817.31
2023-11-23T17:08:35.404Z,99798.47
2023-11-23T17:11:01.943Z,99807.78
2023-11-23T17:13:28.411Z,99803.78
2023-11-23T17:15:54.852Z,99802.22
2023-11-23T17:18:21.630Z,99792.69
2023-11-23T17:20:48.171Z,99791.00
2023-11-23T17:23:16.181Z,99804.66
2023-11-23T17:25:43.230Z,99812.41
2023-11-23T17:28:12.076Z,99814.19
2023-11-23T17:30:43.016Z,99812.41
2023-11-23T17:33:12.509Z,99810.97
2023-11-23T17:35:39.373Z,99830.75
2023-11-23T17:38:07.251Z,99824.84
2023-11-23T17:40:34.537Z,99823.16
2023-11-23T17:43:00.993Z,99823.50
2023-11-23T17:45:27.527Z,99822.47
2023-11-23T17:47:54.124Z,99824.47
2023-11-23T17:50:20.963Z,99823.72
2023-11-23T17:52:48.358Z,99823.81
2023-11-23T17:55:15.347Z,99825.50
2023-11-23T17:57:41.861Z,99815.28
2023-11-23T18:00:13.468Z,99815.06
2023-11-23T18:02:44.030Z,99810.41
2023-11-23T18:05:13.040Z,99794.41
2023-11-23T18:07:39.496Z,99778.66
2023-11-23T18:10:06.878Z,99775.13
2023-11-23T18:12:53.293Z,99773.16
2023-11-23T18:15:19.994Z,99769.22
2023-11-23T18:17:46.485Z,99763.34
2023-11-23T18:20:14.673Z,99764.91
2023-11-23T18:22:41.229Z,99756.69
2023-11-23T18:25:08.059Z,99748.72
2023-11-23T18:27:35.209Z,99736.03
2023-11-23T18:30:01.709Z,99741.13
2023-11-23T18:32:30.122Z,99743.91
2023-11-23T18:34:56.657Z,99748.22
2023-11-23T18:37:23.843Z,99746.25
2023-11-23T18:39:50.408Z,99745.88
2023-11-23T18:42:17.056Z,99737.34
2023-11-23T18:44:43.651Z,99734.88
2023-11-23T18:47:10.254Z,99719.38
2023-11-23T18:49:37.257Z,99702.47
2023-11-23T18:52:04.119Z,99702.94
2023-11-23T18:54:30.743Z,99710.81
2023-11-23T18:56:57.279Z,99706.78
2023-11-23T18:59:25.278Z,99703.66
2023-11-23T19:01:54.885Z,99698.88
2023-11-23T19:04:21.919Z,99695.31
2023-11-23T19:06:50.546Z,99682.47
2023-11-23T19:09:17.986Z,99669.78
2023-11-23T19:11:44.438Z,99657.91
2023-11-23T19:14:10.987Z,99668.88
2023-11-23T19:16:37.488Z,99673.34
2023-11-23T19:19:04.192Z,99690.63
2023-11-23T19:21:31.738Z,99696.03
2023-11-23T19:23:58.840Z,99697.03
2023-11-23T19:26:26.927Z,99690.34
2023-11-23T19:28:55.401Z,99685.94
2023-11-23T19:31:22.092Z,99682.56
2023-11-23T19:33:48.774Z,99687.31
2023-11-23T19:36:15.622Z,99685.56
2023-11-23T19:38:42.346Z,99685.06
2023-11-23T19:41:10.417Z,99667.19
2023-11-23T19:43:37.710Z,99673.06
2023-11-23T19:46:04.985Z,99678.38
2023-11-23T19:48:31.881Z,99679.38
2023-11-23T19:50:59.222Z,99683.00
2023-11-23T19:53:29.783Z,99684.88
2023-11-23T19:55:56.311Z,99673.69
2023-11-23T19:58:22.944Z,99671.72
2023-11-23T20:00:50.740Z,99672.41
2023-11-23T20:03:17.227Z,99668.97
2023-11-23T20:05:44.026Z,99656.38
2023-11-23T20:08:13.486Z,99643.78
2023-11-23T20:10:43.438Z,99647.03
2023-11-23T20:13:11.661Z,99659.13
2023-11-23T20:15:38.207Z,99665.25
2023-11-23T20:18:04.788Z,99671.91
2023-11-23T20:20:31.652Z,99660.13
2023-11-23T20:22:58.501Z,99649.03
2023-11-23T20:25:25.966Z,99644.78
2023-11-23T20:27:52.830Z,99638.28
2023-11-23T20:30:19.517Z,99634.75
2023-11-23T20:32:47.374Z,99638.97
2023-11-23T20:35:13.940Z,99628.06
2023-11-23T20:37:40.595Z,99630.81
2023-11-23T20:40:09.066Z,99630.03
2023-11-23T20:42:35.601Z,99624.91
2023-11-23T20:45:02.164Z,99627.78
2023-11-23T20:47:28.726Z,99623.44
2023-11-23T20:49:55.201Z,99621.78
2023-11-23T20:52:22.720Z,99623.13
2023-11-23T20:54:50.020Z,99624.91
2023-11-23T20:57:16.953Z,99616.94
2023-11-23T20:59:44.509Z,99613.34
2023-11-23T21:02:11.514Z,99603.97
2023-11-23T21:04:40.023Z,99595.63
2023-11-23T21:07:08.612Z,99583.69
2023-11-23T21:09:35.586Z,99576.31
2023-11-23T21:12:03.350Z,99571.03
2023-11-23T21:14:31.656Z,99582.44
2023-11-23T21:17:01.300Z,99566.09
2023-11-23T21:19:28.066Z,99562.16
2023-11-23T21:21:55.449Z,99548.56
2023-11-23T21:24:21.927Z,99546.31
2023-11-23T21:26:48.644Z,99549.94
2023-11-23T21:29:15.145Z,99534.41
2023-11-23T21:31:41.719Z,99516.63
2023-11-23T21:34:08.319Z,99517.28
2023-11-23T21:36:35.895Z,99533.00
2023-11-23T21:39:02.781Z,99517.75
2023-11-23T21:41:29.965Z,99502.13
2023-11-23T21:43:56.905Z,99492.97
2023-11-23T21:46:25.336Z,99481.00
2023-11-23T21:48:52.257Z,99476.72
2023-11-23T21:51:28.030Z,99485.41
2023-11-23T21:53:55.419Z,99483.97
2023-11-23T21:56:21.976Z,99478.88
2023-11-23T21:58:48.554Z,99478.78
2023-11-23T22:01:15.169Z,99475.47
2023-11-23T22:03:41.918Z,99475.75
2023-11-23T22:06:09.863Z,99474.97
2023-11-23T22:08:36.478Z,99475.13
2023-11-23T22:11:03.442Z,99483.59
2023-11-23T22:13:29.937Z,99482.09
2023-11-23T22:15:56.485Z,99478.06
2023-11-23T22:18:23.519Z,99476.97
2023-11-23T22:20:50.238Z,99464.28
2023-11-23T22:23:16.980Z,99464.28
2023-11-23T22:25:43.753Z,99455.84
2023-11-23T22:28:10.531Z,99458.81
2023-11-23T22:30:40.567Z,99463.09
2023-11-23T22:33:08.061Z,99457.09
2023-11-23T22:35:34.950Z,99453.81
2023-11-23T22:38:06.599Z,99454.09
2023-11-23T22:40:35.058Z,99450.09
2023-11-23T22:43:01.710Z,99437.25
2023-11-23T22:45:28.562Z,99429.13
2023-11-23T22:47:55.204Z,99434.31
2023-11-23T22:50:21.817Z,99430.78
2023-11-23T22:52:48.306Z,99427.84
2023-11-23T22:55:14.785Z,99419.41
2023-11-23T22:57:42.482Z,99415.22
2023-11-23T23:00:11.797Z,99412.22
2023-11-23T23:02:39.214Z,99408.00
2023-11-23T23:05:06.447Z,99395.38
2023-11-23T23:07:34.785Z,99392.28
2023-11-23T23:10:01.454Z,99388.84
2023-11-23T23:12:28.162Z,99391.41
2023-11-23T23:14:54.640Z,99386.44
2023-11-23T23:17:21.074Z,99380.44
2023-11-23T23:19:47.596Z,99380.59
2023-11-23T23:22:24.221Z,99378.03
2023-11-23T23:24:55.205Z,99379.03
2023-11-23T23:27:21.785Z,99368.94
2023-11-23T23:29:48.247Z,99353.41
2023-11-23T23:32:14.728Z,99341.56
2023-11-23T23:34:41.324Z,99336.44
2023-11-23T23:37:08.410Z,99319.31
2023-11-23T23:39:34.966Z,99321.25
2023-11-23T23:42:01.595Z,99318.63
2023-11-23T23:44:28.085Z,99308.53
2023-11-23T23:46:56.738Z,99312.78
2023-11-23T23:49:23.495Z,99316.28
2023-11-23T23:51:51.592Z,99317.81
2023-11-23T23:54:19.915Z,99308.44
2023-11-23T23:56:46.895Z,99312.06
2023-11-23T23:59:13.512Z,99312.16
